Time;durP1;ratioP1;P1;durP2;ratioP2;P2;SDS_P1;SDS_P2;PMS_P1;PMS_P2;Temp;Humidity;BMP_temperature;BMP_pressure;BME280_temperature;BME280_humidity;BME280_pressure;Samples;Min_cycle;Max_cycle;Signal;HPM_P1;HPM_P2
2021/12/21 00:00:12;;;;;;;3.35;1.67;;;;;;;-13.20;60.97;98236.84;4828512;29;20045;-74
2021/12/21 00:02:38;;;;;;;2.22;1.15;;;;;;;-13.09;63.00;98241.06;4845443;29;20048;-72
2021/12/21 00:05:03;;;;;;;1.70;1.17;;;;;;;-13.10;62.67;98230.84;4845967;29;20075;-72
2021/12/21 00:07:28;;;;;;;1.15;1.05;;;;;;;-13.13;62.25;98228.25;4828805;29;20060;-74
2021/12/21 00:09:53;;;;;;;1.88;1.52;;;;;;;-13.14;64.06;98234.28;4845967;29;20049;-75
2021/12/21 00:12:19;;;;;;;1.40;1.10;;;;;;;-13.12;64.28;98235.97;4846530;29;20071;-71
2021/12/21 00:17:41;;;;;;;1.15;0.90;;;;;;;-13.22;62.97;98241.97;4840282;29;20542;-72
2021/12/21 00:20:10;;;;;;;2.47;1.15;;;;;;;-13.20;62.71;98227.41;4824589;29;20048;-70
2021/12/21 00:23:12;;;;;;;3.40;1.48;;;;;;;-13.16;62.94;98241.09;4808516;29;20164;-70
2021/12/21 00:25:23;;;;;;;2.15;1.88;;;;;;;-13.25;62.78;98230.00;4809766;29;20118;-67
2021/12/21 00:27:51;;;;;;;3.17;1.30;;;;;;;-13.38;60.14;98232.56;4809705;29;20050;-67
2021/12/21 00:30:17;;;;;;;2.85;1.95;;;;;;;-13.31;61.02;98244.50;4809362;29;20045;-68
2021/12/21 00:32:42;;;;;;;4.25;1.80;;;;;;;-13.26;62.17;98240.25;4825864;29;20080;-68
2021/12/21 00:35:08;;;;;;;3.08;1.55;;;;;;;-13.25;62.05;98240.25;4808843;29;20512;-68
2021/12/21 00:37:33;;;;;;;3.28;2.22;;;;;;;-13.30;62.04;98251.34;4808835;29;20053;-67
2021/12/21 00:39:58;;;;;;;4.10;1.90;;;;;;;-13.30;63.00;98246.22;4825582;29;20056;-70
2021/12/21 00:42:23;;;;;;;2.03;1.35;;;;;;;-13.43;60.13;98240.25;4825720;29;20041;-72
2021/12/21 00:44:48;;;;;;;3.00;2.00;;;;;;;-13.41;61.95;98259.03;4825214;29;20041;-69
2021/12/21 00:47:15;;;;;;;2.97;1.63;;;;;;;-13.41;61.18;98240.25;4825420;29;20049;-69
2021/12/21 00:49:45;;;;;;;2.55;2.08;;;;;;;-13.44;61.27;98230.88;4825475;29;20043;-69
2021/12/21 00:52:09;;;;;;;1.50;1.20;;;;;;;-13.36;61.55;98244.53;4826151;29;20049;-68
2021/12/21 00:54:34;;;;;;;1.70;1.60;;;;;;;-13.34;60.92;98244.53;4826935;29;20045;-66
2021/12/21 00:56:59;;;;;;;2.78;1.80;;;;;;;-13.44;60.27;98253.94;4809712;29;20135;-68
2021/12/21 00:59:24;;;;;;;2.13;1.33;;;;;;;-13.40;61.38;98254.78;4826213;29;20042;-66
2021/12/21 01:01:49;;;;;;;3.58;2.08;;;;;;;-13.68;59.23;98251.34;4824942;29;20067;-68
2021/12/21 01:04:25;;;;;;;2.20;1.05;;;;;;;-13.50;60.78;98253.91;4825704;29;20037;-71
2021/12/21 01:07:10;;;;;;;0.75;0.40;;;;;;;-13.38;63.02;98246.22;4824964;29;20056;-66
2021/12/21 01:12:34;;;;;;;1.33;0.80;;;;;;;-13.49;60.52;98249.63;4825089;29;19920;-64
2021/12/21 01:17:36;;;;;;;2.22;0.93;;;;;;;-13.48;62.34;98259.91;4830715;29;20057;-64
2021/12/21 01:20:13;;;;;;;2.30;1.30;;;;;;;-13.51;60.49;98264.16;4843326;29;20096;-66
2021/12/21 01:28:22;;;;;;;0.93;0.55;;;;;;;-13.51;61.06;98270.13;4844559;29;20044;-68
2021/12/21 01:35:40;;;;;;;2.47;1.52;;;;;;;-13.57;59.63;98282.94;4848914;29;20053;-71
2021/12/21 01:38:17;;;;;;;1.80;0.88;;;;;;;-13.52;61.52;98275.25;4848740;29;20052;-75
2021/12/21 01:51:01;;;;;;;0.82;0.63;;;;;;;-13.49;62.51;98275.28;4827187;29;20797;-72
2021/12/21 01:53:27;;;;;;;1.92;0.82;;;;;;;-13.52;61.90;98275.25;4828136;29;20045;-76
2021/12/21 01:55:52;;;;;;;2.03;1.00;;;;;;;-13.65;62.06;98264.13;4843948;29;20040;-73
2021/12/21 01:58:17;;;;;;;2.20;1.35;;;;;;;-13.72;60.75;98272.66;4811636;29;20045;-72
2021/12/21 02:00:42;;;;;;;1.95;1.27;;;;;;;-13.68;59.97;98280.38;4828121;29;20053;-75
2021/12/21 02:03:07;;;;;;;1.88;1.38;;;;;;;-13.63;60.87;98286.34;4812999;29;20416;-70
2021/12/21 02:05:32;;;;;;;3.17;1.58;;;;;;;-13.66;60.46;98281.22;4810913;29;20115;-70
2021/12/21 02:07:57;;;;;;;1.65;0.77;;;;;;;-13.76;59.80;98279.47;4826301;29;20049;-69
2021/12/21 02:10:22;;;;;;;2.47;1.35;;;;;;;-13.70;61.67;98286.34;4811378;29;20052;-69
2021/12/21 02:12:46;;;;;;;1.88;0.80;;;;;;;-13.66;62.23;98288.91;4843286;29;20045;-70
2021/12/21 02:15:12;;;;;;;2.22;0.98;;;;;;;-13.62;62.06;98292.31;4842194;29;20049;-70
2021/12/21 02:20:21;;;;;;;1.95;1.63;;;;;;;-13.79;57.70;98287.19;4827142;29;20087;-67
2021/12/21 02:23:02;;;;;;;2.00;1.45;;;;;;;-13.77;59.56;98292.31;4842181;29;20056;-68
2021/12/21 02:28:10;;;;;;;1.88;0.98;;;;;;;-13.80;60.63;98298.28;4813095;29;20505;-77
2021/12/21 02:30:38;;;;;;;3.45;1.75;;;;;;;-13.79;60.62;98297.41;4845803;29;20052;-76
2021/12/21 02:33:04;;;;;;;0.57;0.40;;;;;;;-13.78;60.85;98303.41;4827362;29;20044;-71
2021/12/21 02:35:29;;;;;;;1.40;1.10;;;;;;;-13.75;62.17;98306.81;4827087;29;20056;-73
2021/12/21 02:37:54;;;;;;;2.67;1.10;;;;;;;-13.76;62.25;98317.91;4844486;29;20417;-73
2021/12/21 02:40:18;;;;;;;2.03;1.13;;;;;;;-13.89;60.13;98310.19;4827529;29;20053;-77
2021/12/21 02:42:43;;;;;;;3.70;2.28;;;;;;;-13.95;59.80;98321.25;4843999;29;20048;-77
2021/12/21 02:45:08;;;;;;;4.03;1.70;;;;;;;-14.04;59.25;98321.22;4842416;29;20045;-66
2021/12/21 02:47:33;;;;;;;5.28;2.22;;;;;;;-14.21;59.28;98322.81;4826357;29;20056;-72
2021/12/21 02:49:59;;;;;;;3.28;2.13;;;;;;;-14.41;57.02;98320.22;4842447;29;20097;-70
2021/12/21 02:52:24;;;;;;;4.45;1.83;;;;;;;-14.38;58.60;98323.63;4810397;29;20192;-66
2021/12/21 02:54:51;;;;;;;2.67;1.23;;;;;;;-14.27;58.62;98331.34;4841317;29;20893;-65
2021/12/21 02:57:16;;;;;;;5.10;1.92;;;;;;;-14.28;58.57;98326.22;4842612;29;20049;-68
2021/12/21 02:59:41;;;;;;;2.58;1.88;;;;;;;-14.16;58.18;98331.41;4825769;29;20101;-68
2021/12/21 03:02:05;;;;;;;4.68;1.52;;;;;;;-14.26;56.76;98329.66;4842592;29;20469;-64
2021/12/21 03:04:30;;;;;;;2.30;1.13;;;;;;;-14.18;57.96;98322.84;4842240;29;20055;-68
2021/12/21 03:11:55;;;;;;;2.17;1.70;;;;;;;-14.09;59.79;98334.00;4842082;29;20057;-65
2021/12/21 03:14:24;;;;;;;3.38;1.92;;;;;;;-14.28;59.06;98331.34;4842208;29;20044;-68
2021/12/21 03:16:50;;;;;;;2.28;1.58;;;;;;;-14.43;58.62;98343.22;4840573;29;20053;-65
2021/12/21 03:19:14;;;;;;;2.10;1.35;;;;;;;-14.35;58.54;98333.03;4825380;29;20073;-66
2021/12/21 03:21:39;;;;;;;2.13;1.55;;;;;;;-14.24;59.57;98335.63;4842219;29;20075;-68
2021/12/21 03:24:06;;;;;;;7.30;2.33;;;;;;;-14.30;59.53;98349.25;4842196;29;20045;-72
2021/12/21 03:26:34;;;;;;;4.03;1.23;;;;;;;-14.11;61.08;98345.97;4825493;29;20049;-69
2021/12/21 03:29:05;;;;;;;1.65;1.38;;;;;;;-14.03;61.19;98353.66;4842018;29;20048;-69
2021/12/21 03:31:30;;;;;;;1.08;0.93;;;;;;;-14.12;60.35;98353.63;4825425;29;20468;-70
2021/12/21 03:33:55;;;;;;;1.58;1.40;;;;;;;-14.21;59.42;98358.66;4842186;29;20056;-69
2021/12/21 03:36:20;;;;;;;2.75;1.23;;;;;;;-14.13;60.80;98354.47;4825727;29;20049;-71
2021/12/21 03:38:53;;;;;;;2.53;1.80;;;;;;;-14.10;61.35;98355.31;4842148;29;20101;-68
2021/12/21 03:41:19;;;;;;;2.60;1.48;;;;;;;-14.13;60.23;98352.75;4842266;29;20143;-71
2021/12/21 03:43:44;;;;;;;1.60;0.80;;;;;;;-14.03;61.12;98354.53;4842275;29;20045;-71
2021/12/21 03:46:12;;;;;;;2.28;1.52;;;;;;;-14.07;59.85;98351.91;4842031;29;20041;-72
2021/12/21 03:48:43;;;;;;;4.22;1.83;;;;;;;-14.06;58.82;98354.50;4825316;29;20105;-68
2021/12/21 03:51:09;;;;;;;2.28;1.08;;;;;;;-13.99;59.30;98356.22;4842442;29;20053;-70
2021/12/21 03:53:35;;;;;;;3.95;2.05;;;;;;;-14.02;59.35;98350.25;4842228;29;20044;-70
2021/12/21 03:58:43;;;;;;;2.45;2.10;;;;;;;-14.27;59.10;98340.72;4845835;29;20053;-72
2021/12/21 04:01:08;;;;;;;3.22;1.95;;;;;;;-14.22;59.56;98347.59;4847022;29;20101;-71
2021/12/21 11:26:00;;;;;;;8.43;4.18;;;;;;;-13.69;58.90;98586.09;4805162;29;20077;-73
2021/12/21 11:28:35;;;;;;;3.30;2.25;;;;;;;-13.62;59.02;98587.84;4808756;29;20105;-73
2021/12/21 11:31:01;;;;;;;5.82;3.35;;;;;;;-13.66;58.47;98591.25;4840075;29;20041;-72
2021/12/21 11:33:27;;;;;;;4.70;2.13;;;;;;;-13.58;59.37;98588.72;4841824;29;20049;-75
2021/12/21 11:38:38;;;;;;;2.33;1.60;;;;;;;-13.57;59.25;98594.72;4826659;29;20042;-77
2021/12/21 11:41:04;;;;;;;8.45;3.15;;;;;;;-13.62;58.17;98594.66;4809852;29;20049;-77
2021/12/21 11:43:46;;;;;;;5.72;3.47;;;;;;;-13.70;57.19;98601.44;4826228;29;20087;-78
2021/12/21 11:46:24;;;;;;;5.10;2.75;;;;;;;-13.72;58.43;98609.13;4826466;29;20135;-76
2021/12/21 11:49:06;;;;;;;4.03;2.17;;;;;;;-13.70;57.89;98612.56;4809800;29;20109;-80
2021/12/21 11:51:32;;;;;;;8.73;3.55;;;;;;;-13.73;58.07;98620.22;4825610;29;20052;-76
2021/12/21 11:53:57;;;;;;;8.27;3.85;;;;;;;-13.91;55.42;98616.66;4807965;29;20117;-75
2021/12/21 11:56:26;;;;;;;7.07;4.00;;;;;;;-13.99;56.84;98622.53;4808625;29;20050;-74
2021/12/21 11:58:54;;;;;;;5.97;2.35;;;;;;;-13.97;56.57;98614.88;4792868;29;20579;-74
2021/12/21 12:01:30;;;;;;;15.07;3.13;;;;;;;-14.10;56.92;98619.03;4807140;29;20097;-74
2021/12/21 12:04:06;;;;;;;5.13;2.80;;;;;;;-14.26;57.84;98622.28;4824204;29;20385;-74
2021/12/21 12:06:57;;;;;;;6.90;3.38;;;;;;;-14.24;56.93;98622.31;4822787;29;20106;-74
2021/12/21 12:09:27;;;;;;;3.42;2.58;;;;;;;-14.27;57.22;98627.41;4819356;29;20061;-74
2021/12/21 12:12:06;;;;;;;4.45;2.13;;;;;;;-14.17;58.72;98624.09;4822478;29;20159;-74
2021/12/21 12:14:31;;;;;;;6.78;3.05;;;;;;;-14.11;59.32;98642.09;4822898;29;20445;-73
2021/12/21 12:16:58;;;;;;;9.40;3.85;;;;;;;-14.25;59.15;98639.38;4825434;29;20053;-73
2021/12/21 12:19:50;;;;;;;7.35;2.92;;;;;;;-14.27;58.99;98645.31;4826632;29;20045;-74
2021/12/21 12:22:15;;;;;;;6.93;3.08;;;;;;;-14.21;59.46;98647.91;4826798;29;20064;-72
2021/12/21 12:24:43;;;;;;;3.22;2.47;;;;;;;-14.15;59.52;98648.00;4826738;29;20123;-73
2021/12/21 12:27:16;;;;;;;6.55;4.28;;;;;;;-14.13;60.29;98665.09;4827416;29;20190;-73
2021/12/21 12:29:50;;;;;;;6.60;2.90;;;;;;;-14.19;59.74;98671.84;4826659;29;20056;-73
2021/12/21 12:32:16;;;;;;;7.05;4.18;;;;;;;-14.26;60.41;98673.50;4810023;29;20534;-74
2021/12/21 12:34:42;;;;;;;5.93;3.20;;;;;;;-14.19;59.62;98664.16;4826411;29;20060;-74
2021/12/21 12:37:21;;;;;;;6.05;3.58;;;;;;;-14.24;59.74;98668.41;4826153;29;20493;-74
2021/12/21 12:40:04;;;;;;;6.25;2.70;;;;;;;-14.30;58.83;98676.84;4808203;29;20033;-74
2021/12/21 12:42:32;;;;;;;9.60;3.70;;;;;;;-14.49;58.48;98686.06;4826861;29;20361;-73
2021/12/21 12:45:10;;;;;;;4.45;2.92;;;;;;;-14.42;59.89;98685.28;4793709;29;20049;-73
2021/12/21 12:47:49;;;;;;;5.65;2.63;;;;;;;-14.33;59.59;98681.94;4825851;29;20049;-72
2021/12/21 12:50:18;;;;;;;7.05;2.50;;;;;;;-14.36;59.63;98687.03;4809890;29;20049;-73
2021/12/21 12:53:09;;;;;;;9.27;3.22;;;;;;;-14.28;60.88;98689.66;4826314;29;20076;-73
2021/12/21 12:55:49;;;;;;;8.57;2.80;;;;;;;-14.28;60.95;98690.53;4823101;29;20053;-74
2021/12/21 12:58:20;;;;;;;4.32;2.92;;;;;;;-14.26;60.10;98688.00;4826064;29;20504;-74
2021/12/21 13:00:52;;;;;;;3.38;1.85;;;;;;;-14.27;61.29;98699.06;4825951;29;20378;-73
2021/12/21 13:03:17;;;;;;;3.63;2.35;;;;;;;-14.32;60.84;98697.31;4825653;29;20067;-73
2021/12/21 13:05:54;;;;;;;7.72;4.47;;;;;;;-14.49;59.52;98703.09;4825883;29;20045;-73
2021/12/21 13:08:22;;;;;;;8.98;3.97;;;;;;;-14.65;58.74;98693.50;4825661;29;20060;-73
2021/12/21 13:10:52;;;;;;;5.05;3.35;;;;;;;-14.61;58.97;98705.50;4825996;29;20045;-74
2021/12/21 13:13:20;;;;;;;8.23;3.10;;;;;;;-14.51;59.96;98712.47;4825852;29;20558;-73
2021/12/21 13:15:48;;;;;;;7.93;3.10;;;;;;;-14.64;59.63;98703.75;4825762;29;20046;-73
2021/12/21 13:18:19;;;;;;;9.20;2.85;;;;;;;-14.55;60.60;98710.69;4809048;29;20113;-72
2021/12/21 13:20:48;;;;;;;4.30;2.45;;;;;;;-14.48;60.53;98715.06;4801933;29;20595;-73
2021/12/21 13:23:31;;;;;;;6.40;3.38;;;;;;;-14.51;60.43;98713.31;4825978;29;20060;-72
2021/12/21 13:26:00;;;;;;;3.20;2.05;;;;;;;-14.54;60.62;98718.38;4819766;29;20068;-73
2021/12/21 13:28:30;;;;;;;4.35;2.50;;;;;;;-14.51;62.00;98708.19;4825367;29;20076;-74
2021/12/21 13:30:57;;;;;;;4.53;2.53;;;;;;;-14.48;62.31;98725.31;4793379;29;20056;-74
2021/12/21 13:33:28;;;;;;;2.75;1.88;;;;;;;-14.50;61.98;98714.19;4808759;29;20053;-74
2021/12/21 13:35:59;;;;;;;3.25;2.50;;;;;;;-14.46;61.41;98727.03;4808667;29;20045;-73
2021/12/21 13:38:27;;;;;;;2.47;2.08;;;;;;;-14.51;61.05;98727.81;4824043;29;20049;-74
2021/12/21 13:41:07;;;;;;;5.28;2.70;;;;;;;-14.50;62.10;98730.41;4808374;29;20514;-73
2021/12/21 13:43:33;;;;;;;6.03;2.33;;;;;;;-14.47;61.67;98724.47;4824845;29;20420;-73
2021/12/21 13:46:04;;;;;;;8.70;3.78;;;;;;;-14.55;60.64;98719.22;4808315;29;20136;-73
2021/12/21 13:48:31;;;;;;;7.32;3.20;;;;;;;-14.62;60.37;98730.22;4808261;29;20037;-72
2021/12/21 13:51:16;;;;;;;7.05;3.50;;;;;;;-14.71;59.44;98728.41;4808021;29;20041;-74
2021/12/21 13:54:17;;;;;;;6.47;3.17;;;;;;;-14.72;60.83;98728.41;4793202;29;20054;-73
2021/12/21 13:56:41;;;;;;;7.25;2.70;;;;;;;-14.68;60.92;98748.06;4824907;29;20045;-75
2021/12/21 13:59:10;;;;;;;5.22;3.08;;;;;;;-14.65;61.68;98740.41;4824754;29;20090;-73
2021/12/21 14:01:36;;;;;;;5.22;2.88;;;;;;;-14.69;61.33;98738.69;4808789;29;20195;-72
2021/12/21 14:04:06;;;;;;;5.43;3.63;;;;;;;-14.71;61.61;98735.22;4808172;29;20053;-74
2021/12/21 14:06:35;;;;;;;6.53;4.00;;;;;;;-14.71;60.43;98735.22;4824872;29;20059;-74
2021/12/21 14:09:03;;;;;;;8.18;3.38;;;;;;;-14.68;60.79;98740.41;4824825;29;20413;-74
2021/12/21 14:11:34;;;;;;;2.65;1.65;;;;;;;-14.67;61.29;98726.78;4808246;29;20053;-73
2021/12/21 14:14:01;;;;;;;1.33;0.98;;;;;;;-14.74;61.68;98735.19;4824384;29;20535;-75
2021/12/21 14:16:40;;;;;;;7.63;3.38;;;;;;;-14.76;60.59;98735.16;4824487;29;20088;-70
2021/12/21 14:19:09;;;;;;;5.18;3.60;;;;;;;-14.96;60.72;98728.91;4824388;29;20493;-73
2021/12/21 14:21:37;;;;;;;2.63;2.05;;;;;;;-14.88;60.86;98732.44;4807970;29;20061;-72
2021/12/21 14:24:09;;;;;;;4.13;2.72;;;;;;;-14.82;61.87;98726.56;4822702;29;20060;-72
2021/12/21 14:26:56;;;;;;;4.13;2.50;;;;;;;-14.80;61.15;98725.75;4824199;29;20493;-74
2021/12/21 14:29:24;;;;;;;4.82;2.63;;;;;;;-14.74;61.97;98733.47;4807793;29;20045;-75
2021/12/21 14:32:16;;;;;;;5.55;3.15;;;;;;;-14.89;61.62;98732.41;4824991;29;20045;-72
2021/12/21 14:34:46;;;;;;;8.30;4.53;;;;;;;-14.99;60.99;98736.53;4824084;29;20053;-75
2021/12/21 14:37:14;;;;;;;5.25;3.55;;;;;;;-14.94;61.53;98742.56;4824143;29;20139;-74
2021/12/21 14:39:46;;;;;;;5.88;3.40;;;;;;;-15.00;60.28;98739.06;4806647;29;20505;-75
2021/12/21 14:42:16;;;;;;;5.13;3.20;;;;;;;-14.94;61.65;98736.59;4824105;29;20068;-71
2021/12/21 14:44:56;;;;;;;6.18;2.55;;;;;;;-14.96;61.64;98733.16;4807523;29;20049;-71
2021/12/21 14:47:27;;;;;;;4.28;1.92;;;;;;;-14.89;60.95;98751.16;4807237;29;20060;-73
2021/12/21 14:49:57;;;;;;;12.18;4.60;;;;;;;-15.07;60.67;98751.75;4823956;29;20073;-74
2021/12/21 14:52:49;;;;;;;4.72;2.60;;;;;;;-15.02;61.19;98739.06;4824892;29;20103;-68
2021/12/21 14:55:22;;;;;;;2.75;1.85;;;;;;;-15.03;61.74;98739.91;4807165;29;20398;-67
2021/12/21 14:57:59;;;;;;;4.47;2.17;;;;;;;-15.01;61.05;98742.47;4823628;29;20102;-66
2021/12/21 15:00:29;;;;;;;5.03;2.75;;;;;;;-15.02;62.21;98743.31;4779304;29;20401;-74
2021/12/21 15:02:56;;;;;;;2.78;2.35;;;;;;;-15.12;61.29;98748.25;4809989;29;20045;-74
2021/12/21 15:05:24;;;;;;;5.63;3.47;;;;;;;-15.38;60.10;98739.34;4792321;29;20073;-73
2021/12/21 15:07:50;;;;;;;4.70;2.45;;;;;;;-15.22;61.41;98751.50;4809472;29;20049;-77
2021/12/21 15:10:17;;;;;;;4.53;3.15;;;;;;;-15.14;61.32;98744.84;4809547;29;20128;-76
2021/12/21 15:12:42;;;;;;;7.78;3.22;;;;;;;-15.27;60.88;98745.50;4809771;29;20518;-75
2021/12/21 15:15:09;;;;;;;9.02;2.53;;;;;;;-15.20;61.29;98748.97;4825649;29;20052;-75
2021/12/21 15:17:34;;;;;;;4.78;3.22;;;;;;;-15.21;60.68;98752.38;4793410;29;20061;-75
2021/12/21 15:20:00;;;;;;;5.55;2.83;;;;;;;-15.20;61.77;98760.06;4825958;29;20148;-78
2021/12/21 15:22:28;;;;;;;6.38;2.83;;;;;;;-15.15;62.16;98758.47;4823984;29;20056;-74
2021/12/21 15:24:54;;;;;;;5.68;2.90;;;;;;;-15.11;62.08;98765.31;4818451;29;20155;-77
2021/12/21 15:27:19;;;;;;;4.15;1.88;;;;;;;-15.03;61.47;98768.00;4806544;29;20050;-72
2021/12/21 15:29:44;;;;;;;4.75;2.97;;;;;;;-14.98;62.53;98780.84;4773684;29;20042;-70
2021/12/21 15:32:12;;;;;;;5.13;3.00;;;;;;;-14.93;61.87;98771.56;4804694;29;20054;-71
2021/12/21 15:34:37;;;;;;;5.22;2.38;;;;;;;-14.90;61.83;98774.19;4787962;29;20132;-70
2021/12/21 15:37:03;;;;;;;5.13;2.17;;;;;;;-14.88;63.07;98777.59;4805319;29;20211;-71
2021/12/21 15:39:28;;;;;;;4.35;2.13;;;;;;;-14.86;62.94;98773.38;4804795;29;20046;-71
2021/12/21 15:41:55;;;;;;;7.50;2.05;;;;;;;-14.80;62.34;98783.69;4772878;29;20054;-71
2021/12/21 15:44:48;;;;;;;8.82;3.67;;;;;;;-14.78;63.05;98779.44;4788142;29;20361;-71
2021/12/21 15:47:16;;;;;;;7.03;2.70;;;;;;;-14.78;62.35;98774.31;4787981;29;20042;-74
2021/12/21 15:49:42;;;;;;;3.38;2.35;;;;;;;-14.77;62.70;98783.72;4786720;29;20056;-73
2021/12/21 15:52:08;;;;;;;5.38;2.65;;;;;;;-14.81;62.58;98785.41;4791348;29;20568;-69
2021/12/21 15:54:35;;;;;;;3.65;2.58;;;;;;;-14.82;62.27;98793.03;4792526;29;20504;-77
2021/12/21 15:57:01;;;;;;;0.85;0.85;;;;;;;-14.81;62.33;98798.19;4809196;29;20557;-71
2021/12/21 15:59:27;;;;;;;4.63;1.67;;;;;;;-14.79;63.62;98793.97;4808423;29;20212;-70
2021/12/21 16:01:54;;;;;;;4.45;2.70;;;;;;;-14.79;63.09;98788.84;4778104;29;20433;-71
2021/12/21 16:04:25;;;;;;;6.78;1.00;;;;;;;-14.77;62.83;98796.50;4792296;29;20128;-73
2021/12/21 16:06:53;;;;;;;3.03;2.08;;;;;;;-14.75;63.03;98805.06;4808354;29;20097;-71
2021/12/21 16:09:19;;;;;;;5.20;1.90;;;;;;;-14.75;62.86;98805.06;4791640;29;20050;-71
2021/12/21 16:11:47;;;;;;;4.78;2.15;;;;;;;-14.75;62.93;98797.41;4808164;29;20050;-71
2021/12/21 16:14:13;;;;;;;2.85;1.88;;;;;;;-14.72;63.58;98800.00;4791527;29;20424;-71
2021/12/21 16:16:40;;;;;;;2.08;0.95;;;;;;;-14.75;63.13;98800.81;4808568;29;20052;-71
2021/12/21 16:19:08;;;;;;;7.40;3.50;;;;;;;-14.78;62.70;98805.88;4776558;29;20054;-71
2021/12/21 16:21:35;;;;;;;3.40;2.15;;;;;;;-14.78;62.95;98807.56;4761743;29;20038;-71
2021/12/21 16:24:03;;;;;;;7.15;2.78;;;;;;;-14.79;63.16;98805.88;4791894;29;20107;-71
2021/12/21 16:26:28;;;;;;;4.93;2.08;;;;;;;-14.82;63.54;98800.72;4826749;29;20195;-69
2021/12/21 16:28:55;;;;;;;2.30;1.67;;;;;;;-14.83;63.17;98804.09;4810187;29;20543;-73
2021/12/21 16:31:24;;;;;;;5.57;2.40;;;;;;;-14.88;63.67;98804.03;4795775;29;20520;-71
2021/12/21 16:33:51;;;;;;;2.88;1.58;;;;;;;-14.86;62.89;98806.59;4809600;29;20108;-70
2021/12/21 16:36:17;;;;;;;5.50;1.98;;;;;;;-14.87;63.46;98815.13;4826216;29;20045;-71
2021/12/21 16:38:53;;;;;;;6.78;2.13;;;;;;;-14.87;62.58;98810.00;4810565;29;20420;-70
2021/12/21 16:41:20;;;;;;;5.25;2.25;;;;;;;-14.91;63.42;98816.78;4826172;29;20525;-71
2021/12/21 16:43:46;;;;;;;5.53;2.63;;;;;;;-14.88;62.78;98806.59;4809579;29;20049;-71
2021/12/21 16:46:13;;;;;;;5.28;2.47;;;;;;;-14.87;63.39;98810.00;4809904;29;20136;-71
2021/12/21 16:48:40;;;;;;;2.85;1.67;;;;;;;-14.86;62.97;98816.84;4826028;29;20041;-71
2021/12/21 16:51:11;;;;;;;2.65;1.73;;;;;;;-14.84;63.26;98821.16;4794171;29;20052;-70
2021/12/21 16:54:48;;;;;;;4.40;2.15;;;;;;;-14.82;62.78;98813.50;4812751;29;20149;-71
2021/12/21 16:57:43;;;;;;;2.90;1.98;;;;;;;-14.82;62.75;98828.84;4826188;29;20076;-70
2021/12/21 17:00:12;;;;;;;5.22;3.38;;;;;;;-14.85;63.91;98827.09;4794155;29;20045;-69
2021/12/21 17:02:41;;;;;;;4.05;2.53;;;;;;;-14.87;63.62;98836.44;4824975;29;20492;-71
2021/12/21 17:05:08;;;;;;;4.25;2.38;;;;;;;-14.86;63.88;98829.63;4825947;29;20491;-71
2021/12/21 17:07:35;;;;;;;5.60;2.95;;;;;;;-14.89;62.99;98821.91;4825809;29;20113;-71
2021/12/21 17:12:55;;;;;;;6.97;2.00;;;;;;;-14.94;63.85;98828.66;4826004;29;20056;-72
2021/12/21 17:15:20;;;;;;;4.15;2.60;;;;;;;-14.96;63.18;98833.75;4779390;29;20044;-71
2021/12/21 17:17:47;;;;;;;7.22;2.40;;;;;;;-14.96;64.30;98820.94;4825964;29;20049;-71
2021/12/21 17:21:00;;;;;;;5.40;2.47;;;;;;;-14.91;63.72;98833.81;4827134;29;20063;-70
2021/12/21 17:24:18;;;;;;;4.32;2.25;;;;;;;-14.85;64.19;98833.91;4796454;29;20052;-71
2021/12/21 17:26:47;;;;;;;5.65;2.60;;;;;;;-14.92;62.93;98834.66;4812210;29;20735;-71
2021/12/21 17:29:12;;;;;;;2.50;2.20;;;;;;;-14.99;63.48;98838.78;4812115;29;20045;-70
2021/12/21 17:31:39;;;;;;;4.35;1.67;;;;;;;-14.98;63.01;98837.09;4827309;29;20056;-70
2021/12/21 17:34:06;;;;;;;4.80;2.22;;;;;;;-15.05;63.88;98825.94;4809452;29;20056;-71
2021/12/21 17:36:43;;;;;;;4.65;2.35;;;;;;;-15.05;63.81;98845.50;4796027;29;20061;-71
2021/12/21 17:39:09;;;;;;;9.25;2.83;;;;;;;-15.13;63.33;98838.59;4793943;29;20409;-70
2021/12/21 17:41:37;;;;;;;3.50;1.77;;;;;;;-15.13;64.26;98836.03;4826000;29;20057;-70
2021/12/21 17:44:27;;;;;;;8.05;2.35;;;;;;;-15.15;64.14;98836.84;4825511;29;20049;-71
2021/12/21 17:46:57;;;;;;;7.20;2.75;;;;;;;-15.17;63.79;98841.06;4779239;29;20049;-71
2021/12/21 17:49:23;;;;;;;7.07;3.03;;;;;;;-15.20;63.96;98839.31;4829288;29;20056;-71
2021/12/21 17:52:13;;;;;;;6.30;2.83;;;;;;;-15.24;63.33;98845.22;4833842;29;20105;-71
2021/12/21 17:54:40;;;;;;;3.97;2.47;;;;;;;-15.26;64.32;98857.09;4834645;29;20060;-69
2021/12/21 17:57:06;;;;;;;3.60;1.73;;;;;;;-15.31;63.44;98858.69;4824384;29;20045;-71
2021/12/21 17:59:58;;;;;;;7.63;2.03;;;;;;;-15.36;63.55;98859.47;4814842;29;20061;-70
2021/12/21 18:02:27;;;;;;;5.85;2.70;;;;;;;-15.36;63.53;98850.09;4815481;29;20045;-70
2021/12/21 18:04:54;;;;;;;5.43;2.38;;;;;;;-15.38;63.47;98853.47;4800462;29;20408;-71
2021/12/21 18:10:19;;;;;;;5.25;2.28;;;;;;;-15.47;64.17;98851.59;4819712;29;20121;-77
2021/12/21 18:12:46;;;;;;;2.50;1.80;;;;;;;-15.52;63.57;98860.88;4799895;29;20501;-78
2021/12/21 18:15:12;;;;;;;4.57;2.50;;;;;;;-15.54;63.37;98849.78;4817626;29;20048;-75
2021/12/21 18:17:38;;;;;;;4.93;2.10;;;;;;;-15.56;63.47;98847.19;4818849;29;20398;-76
2021/12/21 18:20:05;;;;;;;2.33;1.73;;;;;;;-15.56;64.43;98852.31;4801989;29;20124;-77
2021/12/21 18:22:58;;;;;;;4.60;2.38;;;;;;;-15.55;63.76;98858.28;4816026;29;20111;-76
2021/12/21 18:25:27;;;;;;;6.82;2.80;;;;;;;-15.58;64.52;98855.69;4799252;29;20061;-78
2021/12/21 18:28:17;;;;;;;3.20;1.75;;;;;;;-15.62;64.44;98861.56;4821120;29;20045;-78
2021/12/21 18:36:56;;;;;;;5.93;2.45;;;;;;;-15.55;64.67;98860.84;4814235;29;20067;-70
2021/12/21 18:42:17;;;;;;;6.78;3.28;;;;;;;-15.76;63.87;98857.88;4798182;29;20137;-70
2021/12/21 18:44:43;;;;;;;4.18;2.08;;;;;;;-15.78;63.84;98859.53;4811840;29;20497;-71
2021/12/21 18:47:10;;;;;;;4.28;2.33;;;;;;;-15.78;63.97;98862.09;4815381;29;20130;-71
2021/12/21 18:49:37;;;;;;;4.57;2.13;;;;;;;-15.77;63.47;98859.56;4814442;29;20037;-70
2021/12/21 18:52:04;;;;;;;2.88;1.58;;;;;;;-15.75;64.33;98849.38;4785405;29;20045;-70
2021/12/21 18:54:35;;;;;;;5.70;1.48;;;;;;;-15.76;64.32;98851.06;4808152;29;20133;-72
2021/12/21 19:00:21;;;;;;;2.25;1.90;;;;;;;-15.88;63.88;98848.28;4824088;29;20045;-70
2021/12/21 19:02:57;;;;;;;2.90;0.90;;;;;;;-15.92;64.64;98878.00;4824039;29;20045;-71
2021/12/21 19:08:39;;;;;;;3.70;1.83;;;;;;;-15.94;64.16;98843.94;4807292;29;20076;-70
2021/12/21 19:11:05;;;;;;;1.45;1.23;;;;;;;-15.96;64.56;98849.81;4807787;29;20042;-70
2021/12/21 19:13:31;;;;;;;3.08;1.80;;;;;;;-16.01;64.64;98851.41;4824263;29;20051;-70
2021/12/21 19:15:58;;;;;;;3.63;2.05;;;;;;;-16.05;64.19;98858.16;4806844;29;20061;-71
2021/12/21 19:18:25;;;;;;;6.95;2.92;;;;;;;-16.12;64.29;98865.63;4823983;29;20042;-70
2021/12/21 19:20:54;;;;;;;3.03;1.50;;;;;;;-16.15;64.33;98863.03;4823779;29;20068;-69
2021/12/21 19:23:20;;;;;;;2.03;1.45;;;;;;;-16.16;64.22;98866.41;4808172;29;20049;-72
2021/12/21 19:25:46;;;;;;;1.35;1.15;;;;;;;-16.19;64.59;98873.19;4755641;29;20186;-71
2021/12/21 19:28:19;;;;;;;0.55;0.50;;;;;;;-16.16;64.79;98872.38;4744355;29;20165;-71
2021/12/21 19:30:46;;;;;;;3.20;1.17;;;;;;;-16.21;65.00;98881.63;4758785;29;20050;-72
2021/12/21 19:33:12;;;;;;;2.50;1.10;;;;;;;-16.26;64.32;98888.34;4758918;29;20053;-71
2021/12/21 19:35:41;;;;;;;2.35;1.63;;;;;;;-16.31;64.58;98895.00;4758936;29;20054;-72
2021/12/21 19:38:06;;;;;;;3.10;2.05;;;;;;;-16.35;64.29;98905.97;4788948;29;20046;-72
2021/12/21 19:40:33;;;;;;;3.85;2.28;;;;;;;-16.37;64.34;98905.09;4773782;29;20058;-72
2021/12/21 19:42:59;;;;;;;4.13;2.50;;;;;;;-16.42;64.18;98893.91;4788511;29;20073;-70
2021/12/21 19:45:24;;;;;;;3.53;2.78;;;;;;;-16.44;63.99;98887.91;4773720;29;20058;-71
2021/12/21 19:47:52;;;;;;;1.35;0.95;;;;;;;-16.36;64.55;98907.66;4788466;29;20057;-70
2021/12/21 19:50:21;;;;;;;2.85;1.88;;;;;;;-16.36;64.29;98912.75;4756043;29;20096;-77
2021/12/21 19:52:46;;;;;;;4.93;1.73;;;;;;;-16.38;64.93;98911.00;4774311;29;20050;-80
2021/12/21 19:55:13;;;;;;;1.60;0.85;;;;;;;-16.37;64.69;98910.19;4746332;29;20144;-75
2021/12/21 19:58:03;;;;;;;3.05;2.05;;;;;;;-16.40;64.91;98908.41;4813621;29;20385;-75
2021/12/21 20:00:31;;;;;;;4.25;2.10;;;;;;;-16.42;64.22;98901.56;4827538;29;20050;-72
2021/12/21 20:02:57;;;;;;;2.80;1.42;;;;;;;-16.47;64.87;98896.34;4827797;29;20083;-72
2021/12/21 20:05:24;;;;;;;3.33;1.77;;;;;;;-16.52;64.44;98903.03;4827794;29;20084;-75